createdAt,value
2023-02-13T00:00:23.719Z,17.65
2023-02-13T00:02:25.749Z,17.73
2023-02-13T00:04:27.785Z,17.67
2023-02-13T00:06:29.743Z,17.88
2023-02-13T00:08:31.778Z,16.13
2023-02-13T00:10:33.727Z,16.55
2023-02-13T00:12:36.023Z,17.33
2023-02-13T00:14:39.649Z,17.63
2023-02-13T00:16:41.604Z,17.60
2023-02-13T00:18:43.553Z,17.52
2023-02-13T00:20:46.203Z,17.67
2023-02-13T00:22:48.173Z,18.63
2023-02-13T00:24:51.761Z,18.92
2023-02-13T00:26:53.816Z,18.98
2023-02-13T00:28:57.137Z,18.08
2023-02-13T00:31:04.480Z,19.17
2023-02-13T00:33:06.609Z,19.15
2023-02-13T00:35:08.657Z,19.40
2023-02-13T00:37:10.633Z,18.70
2023-02-13T00:39:12.774Z,19.20
2023-02-13T00:41:16.746Z,20.35
2023-02-13T00:43:20.334Z,18.15
2023-02-13T00:45:22.431Z,18.70
2023-02-13T00:47:24.380Z,17.08
2023-02-13T00:49:26.337Z,16.27
2023-02-13T00:51:28.428Z,18.17
2023-02-13T00:53:31.051Z,17.30
2023-02-13T00:55:34.181Z,18.40
2023-02-13T00:57:36.183Z,19.23
2023-02-13T00:59:38.131Z,19.10
2023-02-13T01:01:40.265Z,20.60
2023-02-13T01:03:42.486Z,20.48
2023-02-13T01:05:45.307Z,19.88
2023-02-13T01:07:47.380Z,19.60
2023-02-13T01:09:49.332Z,19.92
2023-02-13T01:11:51.296Z,20.27
2023-02-13T01:13:53.248Z,19.85
2023-02-13T01:15:55.379Z,19.75
2023-02-13T01:17:57.675Z,19.55
2023-02-13T01:19:59.640Z,19.00
2023-02-13T01:22:01.687Z,19.10
2023-02-13T01:24:05.304Z,19.27
2023-02-13T01:26:09.423Z,19.40
2023-02-13T01:28:11.418Z,17.98
2023-02-13T01:30:14.965Z,19.17
2023-02-13T01:32:17.048Z,18.10
2023-02-13T01:34:19.393Z,19.25
2023-02-13T01:36:21.362Z,19.77
2023-02-13T01:38:23.364Z,19.52
2023-02-13T01:40:25.329Z,19.33
2023-02-13T01:42:30.452Z,18.95
2023-02-13T01:44:38.672Z,18.83
2023-02-13T01:46:44.233Z,18.88
2023-02-13T01:48:48.542Z,17.45
2023-02-13T01:50:57.762Z,17.15
2023-02-13T01:53:05.931Z,18.15
2023-02-13T01:55:10.935Z,17.48
2023-02-13T01:57:19.219Z,15.63
2023-02-13T01:59:27.268Z,16.92
2023-02-13T02:01:30.914Z,15.43
2023-02-13T02:03:40.269Z,14.52
2023-02-13T02:05:43.348Z,16.00
2023-02-13T02:07:46.282Z,15.90
2023-02-13T02:09:48.942Z,15.20
2023-02-13T02:11:56.579Z,14.73
2023-02-13T02:13:59.156Z,14.75
2023-02-13T02:16:01.557Z,14.25
2023-02-13T02:18:03.829Z,13.90
2023-02-13T02:20:10.659Z,14.75
2023-02-13T02:22:16.192Z,13.45
2023-02-13T02:24:28.049Z,13.52
2023-02-13T02:26:36.221Z,13.40
2023-02-13T02:28:41.603Z,13.20
2023-02-13T02:30:56.097Z,14.20
2023-02-13T02:33:04.563Z,14.32
2023-02-13T02:35:10.298Z,14.70
2023-02-13T02:37:14.103Z,14.73
2023-02-13T02:39:25.198Z,15.77
2023-02-13T02:41:42.429Z,15.55
2023-02-13T02:43:47.930Z,16.30
2023-02-13T02:46:01.655Z,14.27
2023-02-13T02:48:11.883Z,14.27
2023-02-13T02:50:20.509Z,14.23
2023-02-13T02:52:31.762Z,14.02
2023-02-13T02:54:46.925Z,14.18
2023-02-13T02:56:50.582Z,14.25
2023-02-13T02:59:02.029Z,15.55
2023-02-13T03:01:13.169Z,14.85
2023-02-13T03:03:22.183Z,14.77
2023-02-13T03:05:33.048Z,13.95
2023-02-13T03:09:43.886Z,14.30
2023-02-13T03:11:53.059Z,15.13
2023-02-13T03:13:55.860Z,14.70
2023-02-13T03:16:03.603Z,15.45
2023-02-13T03:18:09.065Z,14.20
2023-02-13T03:20:18.644Z,15.50
2023-02-13T03:22:26.913Z,14.60
2023-02-13T03:24:35.818Z,14.93
2023-02-13T03:26:44.507Z,15.50
2023-02-13T03:28:53.057Z,15.18
2023-02-13T03:30:59.380Z,13.27
2023-02-13T03:33:07.729Z,14.75
2023-02-13T03:35:23.414Z,14.65
2023-02-13T03:37:34.760Z,15.75
2023-02-13T03:39:40.192Z,15.23
2023-02-13T03:41:52.987Z,16.33
2023-02-13T03:43:59.535Z,15.38
2023-02-13T03:46:03.592Z,15.57
2023-02-13T03:48:28.785Z,14.95
2023-02-13T03:50:30.885Z,16.05
2023-02-13T03:52:37.379Z,16.05
2023-02-13T03:54:49.340Z,16.85
2023-02-13T03:56:55.805Z,17.67
2023-02-13T03:59:02.556Z,19.17
2023-02-13T04:01:08.430Z,16.83
2023-02-13T04:03:13.810Z,18.77
2023-02-13T04:05:21.549Z,17.45
2023-02-13T04:07:29.138Z,17.23
2023-02-13T04:09:34.142Z,18.85
2023-02-13T04:11:39.487Z,18.30
2023-02-13T04:13:47.758Z,18.40
2023-02-13T04:15:56.345Z,18.83
2023-02-13T04:18:08.168Z,18.15
2023-02-13T04:20:12.270Z,19.67
2023-02-13T04:22:14.716Z,21.23
2023-02-13T04:24:16.667Z,22.20
2023-02-13T04:26:22.855Z,22.17
2023-02-13T04:28:24.832Z,22.75
2023-02-13T04:30:26.923Z,21.05
2023-02-13T04:32:29.276Z,22.02
2023-02-13T04:34:31.309Z,21.15
2023-02-13T04:36:33.261Z,20.92
2023-02-13T04:38:35.157Z,21.85
2023-02-13T04:40:37.129Z,22.48
2023-02-13T04:42:39.291Z,21.42
2023-02-13T04:44:41.334Z,22.63
2023-02-13T04:46:43.265Z,21.25
2023-02-13T04:48:45.179Z,21.10
2023-02-13T04:50:48.170Z,21.15
2023-02-13T04:52:55.686Z,20.80
2023-02-13T04:54:57.748Z,21.20
2023-02-13T04:56:59.781Z,22.27
2023-02-13T04:59:01.800Z,22.10
2023-02-13T05:01:11.197Z,22.95
2023-02-13T05:03:14.091Z,21.48
2023-02-13T05:05:16.307Z,22.52
2023-02-13T05:07:18.195Z,24.42
2023-02-13T05:09:20.260Z,22.40
2023-02-13T05:11:22.156Z,22.77
2023-02-13T05:13:24.080Z,24.23
2023-02-13T05:15:26.374Z,23.30
2023-02-13T05:17:28.468Z,22.60
2023-02-13T05:19:30.475Z,23.55
2023-02-13T05:21:35.536Z,23.02
2023-02-13T05:23:37.624Z,23.23
2023-02-13T05:25:41.831Z,23.95
2023-02-13T05:27:43.781Z,23.88
2023-02-13T05:29:45.737Z,23.27
2023-02-13T05:31:49.043Z,24.83
2023-02-13T05:33:51.048Z,23.42
2023-02-13T05:35:53.176Z,23.65
2023-02-13T05:37:55.103Z,26.38
2023-02-13T05:39:56.996Z,25.15
2023-02-13T05:41:59.698Z,23.92
2023-02-13T05:44:01.835Z,25.27
2023-02-13T05:46:05.637Z,25.27
2023-02-13T05:48:07.750Z,25.70
2023-02-13T05:50:10.414Z,24.35
2023-02-13T05:52:12.411Z,24.88
2023-02-13T05:54:14.642Z,26.08
2023-02-13T05:56:16.616Z,26.17
2023-02-13T05:58:20.390Z,25.63
2023-02-13T06:00:22.599Z,26.45
2023-02-13T06:02:24.772Z,26.92
2023-02-13T06:04:27.012Z,25.70
2023-02-13T06:06:29.092Z,25.80
2023-02-13T06:08:31.024Z,26.30
2023-02-13T06:10:32.919Z,25.88
2023-02-13T06:12:34.846Z,25.70
2023-02-13T06:14:36.808Z,25.73
2023-02-13T06:16:38.792Z,26.23
2023-02-13T06:18:40.998Z,25.83
2023-02-13T06:20:43.370Z,25.42
2023-02-13T06:22:49.007Z,26.58
2023-02-13T06:24:52.365Z,26.25
2023-02-13T06:26:54.422Z,26.38
2023-02-13T06:28:56.476Z,25.95
2023-02-13T06:30:58.903Z,26.95
2023-02-13T06:33:01.505Z,27.52
2023-02-13T06:35:05.468Z,27.45
2023-02-13T06:37:07.788Z,27.45
2023-02-13T06:39:12.431Z,26.25
2023-02-13T06:41:14.341Z,25.58
2023-02-13T06:43:17.883Z,27.52
2023-02-13T06:45:19.940Z,27.95
2023-02-13T06:47:21.955Z,27.50
2023-02-13T06:49:23.921Z,26.98
2023-02-13T06:51:25.928Z,26.65
2023-02-13T06:53:28.669Z,26.40
2023-02-13T06:55:30.737Z,26.10
2023-02-13T06:57:34.054Z,26.98
2023-02-13T06:59:36.008Z,24.88
2023-02-13T07:01:37.954Z,26.45
2023-02-13T07:03:40.070Z,25.95
2023-02-13T07:05:42.660Z,25.77
2023-02-13T07:07:44.860Z,24.88
2023-02-13T07:09:46.806Z,25.95
2023-02-13T07:11:48.838Z,25.83
2023-02-13T07:13:51.530Z,25.30
2023-02-13T07:15:53.529Z,26.00
2023-02-13T07:17:59.059Z,27.58
2023-02-13T07:20:01.211Z,26.52
2023-02-13T07:22:03.303Z,25.45
2023-02-13T07:24:07.960Z,24.58
2023-02-13T07:26:11.397Z,23.70
2023-02-13T07:28:13.714Z,25.38
2023-02-13T07:30:16.088Z,23.67
2023-02-13T07:32:18.078Z,23.25
2023-02-13T07:34:20.172Z,20.85
2023-02-13T07:36:22.178Z,21.98
2023-02-13T07:38:24.147Z,23.13
2023-02-13T07:40:26.210Z,24.25
2023-02-13T07:42:28.252Z,21.85
2023-02-13T07:44:30.708Z,22.27
2023-02-13T07:46:32.761Z,21.27
2023-02-13T07:48:34.896Z,21.65
2023-02-13T07:50:36.896Z,22.48
2023-02-13T07:52:39.119Z,21.45
2023-02-13T07:54:47.796Z,22.10
2023-02-13T07:56:50.002Z,22.17
2023-02-13T07:58:52.141Z,21.38
2023-02-13T08:00:54.155Z,21.17
2023-02-13T08:02:58.777Z,21.48
2023-02-13T08:05:00.861Z,20.92
2023-02-13T08:07:03.047Z,21.75
2023-02-13T08:09:08.216Z,19.70
2023-02-13T08:11:26.760Z,21.75
2023-02-13T08:13:29.362Z,21.90
2023-02-13T08:15:31.732Z,20.65
2023-02-13T08:17:33.768Z,22.45
2023-02-13T08:19:36.294Z,22.33
2023-02-13T08:21:38.416Z,20.95
2023-02-13T08:23:40.846Z,20.65
2023-02-13T08:25:43.079Z,20.45
2023-02-13T08:27:45.124Z,21.25
2023-02-13T08:29:49.297Z,19.52
2023-02-13T08:31:51.478Z,18.60
2023-02-13T08:33:53.620Z,19.42
2023-02-13T08:35:55.807Z,20.42
2023-02-13T08:38:01.615Z,20.27
2023-02-13T08:40:04.074Z,19.33
2023-02-13T08:42:06.164Z,19.42
2023-02-13T08:44:08.214Z,18.88
2023-02-13T08:46:10.753Z,20.08
2023-02-13T08:48:12.894Z,19.30
2023-02-13T08:50:15.094Z,18.02
2023-02-13T08:52:17.293Z,19.38
2023-02-13T08:54:19.354Z,18.55
2023-02-13T08:56:21.466Z,18.63
2023-02-13T08:58:24.281Z,18.17
2023-02-13T09:00:26.392Z,17.67
2023-02-13T09:02:28.537Z,19.17
2023-02-13T09:04:30.667Z,19.75
2023-02-13T09:06:32.771Z,18.20
2023-02-13T09:08:36.305Z,19.55
2023-02-13T09:10:39.399Z,18.67
2023-02-13T09:12:41.450Z,17.70
2023-02-13T09:14:43.611Z,18.42
2023-02-13T09:16:45.712Z,17.25
2023-02-13T09:18:48.817Z,17.65
2023-02-13T09:20:50.913Z,17.85
2023-02-13T09:22:54.977Z,18.80
2023-02-13T09:24:58.356Z,17.52
2023-02-13T09:27:00.523Z,17.08
2023-02-13T09:29:02.769Z,18.42
2023-02-13T09:31:10.024Z,16.73
2023-02-13T09:33:13.328Z,17.48
2023-02-13T09:35:16.569Z,17.83
2023-02-13T09:37:19.133Z,17.98
2023-02-13T09:39:21.337Z,16.65
2023-02-13T09:41:28.887Z,16.95
2023-02-13T09:43:34.377Z,17.23
2023-02-13T09:45:37.472Z,16.75
2023-02-13T09:47:43.805Z,15.75
2023-02-13T09:49:53.014Z,16.75
2023-02-13T09:51:57.681Z,15.75
2023-02-13T09:54:03.799Z,16.42
2023-02-13T09:56:10.862Z,16.27
2023-02-13T09:58:24.936Z,16.50
2023-02-13T10:00:34.806Z,17.20
2023-02-13T10:02:44.341Z,15.20
2023-02-13T10:04:48.193Z,16.77
2023-02-13T10:06:58.899Z,16.42
2023-02-13T10:09:09.652Z,15.73
2023-02-13T10:11:18.064Z,16.95
2023-02-13T10:13:26.353Z,16.70
2023-02-13T10:15:34.480Z,16.05
2023-02-13T10:17:41.964Z,17.10
2023-02-13T10:19:50.721Z,15.80
2023-02-13T10:21:58.384Z,15.65
2023-02-13T10:24:06.695Z,14.55
2023-02-13T10:26:20.113Z,14.18
2023-02-13T10:28:30.614Z,14.35
2023-02-13T10:30:37.226Z,15.02
2023-02-13T10:32:44.184Z,15.43
2023-02-13T10:34:47.399Z,14.55
2023-02-13T10:36:49.609Z,15.60
2023-02-13T10:38:56.147Z,14.55
2023-02-13T10:40:58.939Z,15.52
2023-02-13T10:43:07.418Z,14.40
2023-02-13T10:45:17.695Z,14.63
2023-02-13T10:47:34.447Z,13.80
2023-02-13T10:49:42.666Z,14.25
2023-02-13T10:51:55.493Z,13.98
2023-02-13T10:54:06.799Z,15.88
2023-02-13T10:56:12.861Z,14.32
2023-02-13T10:58:15.761Z,14.60
2023-02-13T11:00:23.101Z,14.40
2023-02-13T11:02:28.790Z,13.75
2023-02-13T11:04:31.223Z,15.05
2023-02-13T11:06:36.682Z,14.95
2023-02-13T11:08:43.832Z,14.38
2023-02-13T11:10:46.162Z,13.05
2023-02-13T11:12:49.330Z,13.88
2023-02-13T11:14:57.568Z,14.82
2023-02-13T11:17:04.476Z,14.88
2023-02-13T11:19:06.735Z,14.93
2023-02-13T11:21:15.282Z,14.07
2023-02-13T11:23:24.131Z,13.57
2023-02-13T11:25:31.439Z,14.05
2023-02-13T11:27:37.317Z,13.45
2023-02-13T11:29:54.194Z,14.25
2023-02-13T11:32:02.646Z,13.80
2023-02-13T11:34:10.887Z,13.77
2023-02-13T11:36:18.021Z,14.00
2023-02-13T11:38:23.572Z,13.90
2023-02-13T11:40:31.817Z,14.15
2023-02-13T11:42:37.243Z,12.70
2023-02-13T11:44:41.649Z,13.18
2023-02-13T11:46:48.403Z,13.63
2023-02-13T11:48:56.668Z,13.18
2023-02-13T11:50:59.135Z,12.73
2023-02-13T11:53:07.751Z,12.95
2023-02-13T11:55:15.995Z,13.20
2023-02-13T11:57:21.512Z,12.25
2023-02-13T11:59:25.658Z,12.98
2023-02-13T12:01:29.294Z,13.18
2023-02-13T12:03:32.441Z,12.85
2023-02-13T12:05:34.681Z,11.43
2023-02-13T12:07:36.883Z,11.93
2023-02-13T12:09:41.630Z,11.75
2023-02-13T12:11:49.017Z,12.13
2023-02-13T12:13:52.299Z,11.63
2023-02-13T12:16:02.888Z,10.73
2023-02-13T12:18:09.481Z,11.43
2023-02-13T12:20:16.446Z,11.05
2023-02-13T12:22:24.753Z,12.07
2023-02-13T12:24:30.349Z,11.93
2023-02-13T12:26:37.282Z,11.10
2023-02-13T12:28:55.449Z,12.20
2023-02-13T12:31:05.848Z,11.35
2023-02-13T12:33:11.494Z,12.60
2023-02-13T12:35:28.972Z,10.98
2023-02-13T12:37:34.452Z,12.15
2023-02-13T12:39:45.213Z,11.85
2023-02-13T12:43:56.600Z,10.93
2023-02-13T12:46:04.104Z,10.63
2023-02-13T12:48:09.733Z,10.82
2023-02-13T12:50:21.167Z,11.40
2023-02-13T12:52:29.335Z,11.50
2023-02-13T12:54:33.233Z,11.00
2023-02-13T12:56:42.013Z,10.57
2023-02-13T12:58:45.951Z,11.82
2023-02-13T13:00:49.299Z,11.07
2023-02-13T13:02:57.565Z,11.75
2023-02-13T13:05:06.301Z,12.10
2023-02-13T13:07:20.480Z,11.00
2023-02-13T13:09:27.041Z,11.02
2023-02-13T13:11:38.423Z,10.48
2023-02-13T13:13:49.350Z,10.80
2023-02-13T13:15:55.532Z,11.20
2023-02-13T13:18:01.125Z,11.32
2023-02-13T13:20:09.377Z,10.52
2023-02-13T13:22:20.285Z,10.38
2023-02-13T13:24:26.946Z,9.85
2023-02-13T13:26:34.127Z,10.20
2023-02-13T13:28:41.879Z,9.77
2023-02-13T13:30:44.442Z,10.38
2023-02-13T13:32:52.559Z,10.52
2023-02-13T13:34:56.400Z,9.80
2023-02-13T13:37:02.041Z,10.18
2023-02-13T13:39:16.477Z,10.15
2023-02-13T13:41:30.197Z,11.57
2023-02-13T13:43:39.812Z,10.23
2023-02-13T13:45:48.217Z,10.07
2023-02-13T13:47:54.862Z,9.27
2023-02-13T13:50:00.117Z,10.13
2023-02-13T13:52:08.369Z,10.88
2023-02-13T13:54:11.235Z,9.98
2023-02-13T13:56:13.577Z,10.57
2023-02-13T13:58:21.868Z,10.45
2023-02-13T14:00:28.182Z,10.60
2023-02-13T14:02:34.837Z,10.43
2023-02-13T14:04:41.779Z,9.45
2023-02-13T14:06:44.576Z,10.48
2023-02-13T14:08:47.696Z,10.05
2023-02-13T14:10:50.556Z,10.02
2023-02-13T14:12:56.095Z,10.07
2023-02-13T14:15:00.207Z,10.18
2023-02-13T14:17:02.757Z,11.15
2023-02-13T14:19:06.270Z,10.80
2023-02-13T14:21:08.534Z,10.10
2023-02-13T14:23:14.228Z,10.07
2023-02-13T14:25:22.773Z,9.80
2023-02-13T14:27:30.207Z,11.27
2023-02-13T14:29:33.992Z,11.40
2023-02-13T14:31:40.289Z,10.75
2023-02-13T14:33:43.015Z,10.98
2023-02-13T14:35:45.149Z,10.63
2023-02-13T14:37:52.046Z,10.00
2023-02-13T14:40:09.636Z,10.75
2023-02-13T14:42:17.939Z,9.70
2023-02-13T14:44:23.448Z,9.70
2023-02-13T14:46:31.779Z,10.45
2023-02-13T14:48:40.368Z,10.18
2023-02-13T14:50:49.253Z,10.30
2023-02-13T14:52:52.735Z,10.27
2023-02-13T14:55:01.021Z,10.05
2023-02-13T14:57:09.580Z,11.35
2023-02-13T14:59:17.978Z,10.15
2023-02-13T15:01:28.530Z,10.70
2023-02-13T15:03:38.688Z,10.60
2023-02-13T15:05:41.757Z,10.38
2023-02-13T15:07:49.300Z,10.23
2023-02-13T15:09:56.216Z,9.80
2023-02-13T15:11:59.279Z,10.35
2023-02-13T15:14:17.493Z,10.68
2023-02-13T15:16:19.715Z,9.70
2023-02-13T15:18:26.276Z,10.43
2023-02-13T15:20:33.250Z,9.63
2023-02-13T15:22:38.842Z,10.07
2023-02-13T15:24:46.369Z,9.68
2023-02-13T15:26:54.971Z,10.95
2023-02-13T15:28:59.655Z,10.10
2023-02-13T15:31:05.621Z,10.52
2023-02-13T15:33:12.214Z,10.25
2023-02-13T15:35:26.055Z,10.18
2023-02-13T15:37:30.648Z,10.40
2023-02-13T15:39:32.995Z,11.45
2023-02-13T15:41:39.055Z,10.10
2023-02-13T15:43:44.566Z,9.77
2023-02-13T15:45:46.771Z,11.23
2023-02-13T15:47:50.214Z,9.07
2023-02-13T15:49:52.594Z,9.65
2023-02-13T15:52:00.929Z,9.05
2023-02-13T15:54:06.074Z,9.40
2023-02-13T15:56:15.351Z,9.10
2023-02-13T15:58:17.487Z,9.15
2023-02-13T16:00:25.637Z,10.02
2023-02-13T16:02:33.980Z,9.98
2023-02-13T16:04:36.529Z,8.52
2023-02-13T16:06:39.191Z,8.38
2023-02-13T16:08:45.555Z,9.52
2023-02-13T16:10:47.962Z,9.20
2023-02-13T16:12:50.095Z,9.70
2023-02-13T16:14:55.469Z,8.80
2023-02-13T16:17:03.163Z,9.07
2023-02-13T16:19:05.391Z,9.43
2023-02-13T16:21:09.305Z,9.82
2023-02-13T16:23:17.689Z,9.70
2023-02-13T16:25:25.487Z,9.05
2023-02-13T16:27:28.822Z,9.68
2023-02-13T16:29:31.120Z,9.13
2023-02-13T16:31:33.454Z,9.00
2023-02-13T16:33:41.656Z,9.63
2023-02-13T16:35:49.294Z,9.20
2023-02-13T16:37:56.453Z,8.48
2023-02-13T16:40:20.357Z,9.45
2023-02-13T16:42:22.874Z,9.88
2023-02-13T16:44:30.270Z,9.27
2023-02-13T16:46:33.935Z,9.25
2023-02-13T16:48:36.588Z,10.05
2023-02-13T16:50:38.751Z,9.60
2023-02-13T16:52:41.088Z,9.60
2023-02-13T16:54:48.105Z,9.98
2023-02-13T16:56:52.642Z,9.10
2023-02-13T16:59:00.890Z,8.60
2023-02-13T17:01:04.939Z,9.98
2023-02-13T17:03:09.713Z,9.48
2023-02-13T17:05:12.460Z,10.10
2023-02-13T17:07:18.146Z,9.00
2023-02-13T17:09:20.557Z,9.98
2023-02-13T17:11:22.874Z,9.48
2023-02-13T17:13:25.682Z,8.90
2023-02-13T17:15:30.156Z,9.15
2023-02-13T17:17:33.060Z,9.73
2023-02-13T17:19:35.201Z,9.57
2023-02-13T17:21:37.575Z,10.30
2023-02-13T17:23:40.434Z,9.77
2023-02-13T17:25:43.742Z,9.60
2023-02-13T17:27:45.801Z,9.88
2023-02-13T17:29:48.006Z,11.25
2023-02-13T17:31:55.787Z,10.52
2023-02-13T17:33:57.953Z,10.63
2023-02-13T17:36:00.083Z,10.82
2023-02-13T17:38:02.532Z,11.63
2023-02-13T17:40:05.343Z,11.32
2023-02-13T17:42:15.309Z,12.10
2023-02-13T17:44:17.532Z,13.03
2023-02-13T17:46:19.879Z,12.40
2023-02-13T17:48:22.013Z,12.05
2023-02-13T17:50:25.223Z,12.45
2023-02-13T17:52:29.150Z,13.70
2023-02-13T17:54:33.218Z,13.05
2023-02-13T17:56:35.406Z,13.25
2023-02-13T17:58:37.521Z,12.88
2023-02-13T18:00:39.713Z,13.45
2023-02-13T18:02:42.785Z,14.25
2023-02-13T18:04:45.370Z,14.02
2023-02-13T18:06:51.927Z,14.50
2023-02-13T18:08:53.968Z,14.52
2023-02-13T18:10:56.410Z,14.90
2023-02-13T18:13:04.514Z,15.48
2023-02-13T18:15:07.249Z,15.15
2023-02-13T18:17:10.607Z,14.48
2023-02-13T18:19:14.137Z,14.82
2023-02-13T18:21:16.270Z,15.40
2023-02-13T18:23:18.414Z,14.88
2023-02-13T18:25:21.445Z,15.85
2023-02-13T18:27:25.537Z,15.50
2023-02-13T18:29:27.947Z,14.60
2023-02-13T18:31:30.488Z,14.23
2023-02-13T18:33:32.868Z,16.42
2023-02-13T18:35:36.726Z,15.75
2023-02-13T18:37:39.448Z,15.38
2023-02-13T18:39:41.554Z,15.93
2023-02-13T18:41:43.989Z,15.98
2023-02-13T18:43:46.204Z,16.63
2023-02-13T18:45:48.552Z,16.58
2023-02-13T18:47:50.650Z,16.45
2023-02-13T18:49:52.817Z,17.38
2023-02-13T18:51:54.893Z,16.75
2023-02-13T18:53:57.349Z,16.73
2023-02-13T18:56:01.477Z,16.05
2023-02-13T18:58:03.646Z,16.17
2023-02-13T19:00:07.418Z,17.75
2023-02-13T19:02:10.780Z,16.23
2023-02-13T19:04:12.974Z,17.33
2023-02-13T19:06:19.306Z,16.80
2023-02-13T19:08:21.331Z,16.75
2023-02-13T19:10:23.490Z,17.08
2023-02-13T19:12:25.515Z,17.60
2023-02-13T19:14:27.557Z,16.67
2023-02-13T19:16:31.372Z,16.85
2023-02-13T19:18:37.191Z,17.25
2023-02-13T19:20:41.452Z,17.27
2023-02-13T19:22:43.493Z,17.02
2023-02-13T19:24:45.545Z,17.10
2023-02-13T19:26:47.717Z,18.15
2023-02-13T19:28:50.677Z,17.02
2023-02-13T19:30:52.803Z,18.40
2023-02-13T19:32:55.090Z,17.35
2023-02-13T19:34:57.056Z,17.42
2023-02-13T19:36:59.079Z,16.70
2023-02-13T19:39:04.018Z,17.83
2023-02-13T19:41:08.382Z,19.10
2023-02-13T19:43:10.913Z,16.73
2023-02-13T19:45:12.992Z,17.80
2023-02-13T19:47:15.026Z,18.27
2023-02-13T19:49:17.085Z,17.10
2023-02-13T19:51:21.660Z,17.13
2023-02-13T19:53:23.665Z,18.80
2023-02-13T19:55:27.318Z,18.75
2023-02-13T19:57:29.316Z,19.00
2023-02-13T19:59:32.837Z,18.65
2023-02-13T20:01:34.994Z,17.65
2023-02-13T20:03:37.040Z,17.33
2023-02-13T20:05:40.101Z,19.48
2023-02-13T20:07:42.235Z,18.65
2023-02-13T20:09:44.248Z,17.38
2023-02-13T20:11:46.424Z,17.63
2023-02-13T20:13:52.840Z,19.70
2023-02-13T20:15:55.364Z,17.92
2023-02-13T20:17:57.461Z,19.02
2023-02-13T20:19:59.559Z,18.77
2023-02-13T20:22:01.921Z,17.17
2023-02-13T20:24:05.059Z,18.85
2023-02-13T20:26:11.174Z,17.63
2023-02-13T20:28:13.200Z,17.73
2023-02-13T20:30:16.742Z,18.40
2023-02-13T20:32:18.845Z,16.90
2023-02-13T20:34:20.913Z,17.00
2023-02-13T20:36:25.613Z,17.27
2023-02-13T20:38:27.532Z,19.08
2023-02-13T20:40:29.582Z,17.55
2023-02-13T20:42:33.852Z,18.17
2023-02-13T20:44:36.030Z,17.58
2023-02-13T20:46:39.923Z,17.27
2023-02-13T20:48:43.516Z,17.02
2023-02-13T20:50:45.680Z,17.10
2023-02-13T20:52:47.807Z,17.75
2023-02-13T20:54:49.845Z,16.30
2023-02-13T20:56:51.955Z,17.20
2023-02-13T20:58:57.846Z,17.70
2023-02-13T21:01:02.208Z,18.17
2023-02-13T21:03:06.620Z,17.08
2023-02-13T21:05:09.557Z,18.63
2023-02-13T21:07:11.847Z,17.98
2023-02-13T21:09:15.515Z,16.88
2023-02-13T21:11:21.295Z,17.60
2023-02-13T21:13:26.597Z,17.90
2023-02-13T21:15:30.833Z,17.70
2023-02-13T21:17:35.087Z,18.92
2023-02-13T21:19:39.007Z,17.58
2023-02-13T21:21:46.227Z,18.25
2023-02-13T21:23:53.650Z,17.40
2023-02-13T21:25:58.929Z,18.60
2023-02-13T21:28:04.258Z,18.13
2023-02-13T21:30:08.052Z,17.67
2023-02-13T21:32:11.588Z,17.55
2023-02-13T21:34:16.540Z,19.10
2023-02-13T21:36:20.909Z,18.70
2023-02-13T21:38:24.343Z,17.42
2023-02-13T21:40:26.569Z,17.70
2023-02-13T21:42:28.610Z,17.02
2023-02-13T21:44:30.614Z,17.65
2023-02-13T21:46:33.566Z,17.30
2023-02-13T21:48:35.600Z,17.98
2023-02-13T21:50:38.208Z,16.27
2023-02-13T21:52:40.375Z,17.00
2023-02-13T21:54:43.539Z,15.77
2023-02-13T21:56:45.680Z,17.55
2023-02-13T21:58:48.247Z,17.05
2023-02-13T22:00:50.395Z,17.77
2023-02-13T22:02:52.479Z,18.27
2023-02-13T22:04:54.592Z,16.25
2023-02-13T22:06:56.646Z,17.25
2023-02-13T22:09:01.661Z,18.13
2023-02-13T22:11:04.139Z,17.65
2023-02-13T22:13:07.386Z,17.10
2023-02-13T22:15:10.420Z,16.63
2023-02-13T22:17:12.500Z,17.23
2023-02-13T22:19:16.177Z,17.40
2023-02-13T22:21:20.469Z,17.65
2023-02-13T22:23:22.364Z,17.17
2023-02-13T22:25:24.248Z,17.27
2023-02-13T22:27:43.468Z,17.00
2023-02-13T22:29:48.335Z,18.05
2023-02-13T22:31:50.693Z,17.73
2023-02-13T22:34:03.360Z,18.15
2023-02-13T22:36:06.604Z,18.40
2023-02-13T22:38:08.903Z,18.42
2023-02-13T22:40:11.609Z,17.85
2023-02-13T22:42:14.375Z,18.27
2023-02-13T22:44:16.664Z,18.35
2023-02-13T22:46:23.080Z,19.00
2023-02-13T22:48:24.930Z,18.38
2023-02-13T22:50:26.762Z,18.65
2023-02-13T22:52:28.951Z,18.52
2023-02-13T22:54:31.564Z,18.67
2023-02-13T22:56:34.568Z,18.83
2023-02-13T22:58:36.693Z,18.23
2023-02-13T23:00:39.470Z,18.77
2023-02-13T23:02:41.525Z,19.00
2023-02-13T23:04:47.618Z,18.67
2023-02-13T23:06:50.146Z,18.40
2023-02-13T23:08:53.754Z,18.50
2023-02-13T23:10:59.457Z,18.70
2023-02-13T23:13:01.964Z,18.90
2023-02-13T23:15:08.638Z,18.48
2023-02-13T23:17:14.126Z,20.45
2023-02-13T23:19:16.240Z,19.83
2023-02-13T23:21:18.717Z,20.02
2023-02-13T23:23:21.386Z,20.27
2023-02-13T23:25:25.926Z,19.55
2023-02-13T23:27:28.766Z,20.48
2023-02-13T23:29:30.888Z,20.23
2023-02-13T23:31:34.553Z,20.15
2023-02-13T23:33:36.594Z,19.92
2023-02-13T23:35:38.565Z,18.92
2023-02-13T23:37:40.747Z,19.27
2023-02-13T23:39:42.894Z,19.33
2023-02-13T23:41:45.070Z,20.35
2023-02-13T23:43:47.044Z,20.75
2023-02-13T23:45:50.054Z,20.60
2023-02-13T23:47:52.355Z,21.27
2023-02-13T23:49:54.304Z,21.83
2023-02-13T23:51:57.305Z,20.73
2023-02-13T23:54:00.619Z,20.77
2023-02-13T23:56:03.628Z,20.77
2023-02-13T23:58:05.646Z,20.70
